createdAt,value
2023-04-14T00:00:59.055Z,8.50
2023-04-14T00:03:29.958Z,9.10
2023-04-14T00:06:00.722Z,8.10
2023-04-14T00:08:31.349Z,10.10
2023-04-14T00:11:02.017Z,6.90
2023-04-14T00:13:32.668Z,6.80
2023-04-14T00:16:03.611Z,7.10
2023-04-14T00:18:34.271Z,8.70
2023-04-14T00:21:05.232Z,7.70
2023-04-14T00:26:07.778Z,5.90
2023-04-14T00:28:38.379Z,6.00
2023-04-14T00:31:09.050Z,5.60
2023-04-14T00:33:39.811Z,6.70
2023-04-14T00:36:10.826Z,6.70
2023-04-14T00:38:41.557Z,5.00
2023-04-14T00:41:12.157Z,7.30
2023-04-14T00:43:42.794Z,6.80
2023-04-14T00:46:15.812Z,6.90
2023-04-14T00:48:47.299Z,8.00
2023-04-14T00:51:18.309Z,9.30
2023-04-14T00:56:18.511Z,7.60
2023-04-14T00:58:51.511Z,7.90
2023-04-14T01:01:22.350Z,7.10
2023-04-14T01:03:53.894Z,8.20
2023-04-14T01:06:24.711Z,10.00
2023-04-14T01:08:56.317Z,8.00
2023-04-14T01:11:32.104Z,10.30
2023-04-14T01:14:12.648Z,9.20
2023-04-14T01:16:44.587Z,7.90
2023-04-14T01:19:37.070Z,6.10
2023-04-14T01:22:09.954Z,10.50
2023-04-14T01:25:01.397Z,8.00
2023-04-14T01:27:40.789Z,10.20
2023-04-14T01:30:35.517Z,9.80
2023-04-14T01:33:11.853Z,7.30
2023-04-14T01:35:47.929Z,8.60
2023-04-14T01:38:23.884Z,7.80
2023-04-14T01:40:57.299Z,7.50
2023-04-14T01:43:29.120Z,10.80
2023-04-14T01:46:05.181Z,8.00
2023-04-14T01:48:36.654Z,9.00
2023-04-14T01:51:08.319Z,8.00
2023-04-14T01:53:42.777Z,9.60
2023-04-14T01:56:16.147Z,7.70
2023-04-14T01:58:48.366Z,8.70
2023-04-14T02:01:19.933Z,8.10
2023-04-14T02:03:50.932Z,7.40
2023-04-14T02:08:53.103Z,8.00
2023-04-14T02:11:24.809Z,7.80
2023-04-14T02:13:56.548Z,7.60
2023-04-14T02:16:27.283Z,6.10
2023-04-14T02:19:00.816Z,9.40
2023-04-14T02:21:33.325Z,7.90
2023-04-14T02:24:04.187Z,10.40
2023-04-14T02:26:40.570Z,11.30
2023-04-14T02:29:15.370Z,9.60
2023-04-14T02:31:50.301Z,10.70
2023-04-14T02:34:25.270Z,8.90
2023-04-14T02:37:01.657Z,7.50
2023-04-14T02:39:37.496Z,9.50
2023-04-14T02:42:14.900Z,9.90
2023-04-14T02:44:50.688Z,10.40
2023-04-14T02:47:25.672Z,11.00
2023-04-14T02:49:58.822Z,8.70
2023-04-14T02:52:32.020Z,9.50
2023-04-14T02:55:04.100Z,11.00
2023-04-14T02:57:35.530Z,10.10
2023-04-14T03:00:09.261Z,9.70
2023-04-14T03:02:42.320Z,9.60
2023-04-14T03:05:14.076Z,12.10
2023-04-14T03:07:46.693Z,12.10
2023-04-14T03:10:17.561Z,11.00
2023-04-14T03:12:49.284Z,13.30
2023-04-14T03:15:20.673Z,14.30
2023-04-14T03:17:52.533Z,19.90
2023-04-14T03:20:23.829Z,18.10
2023-04-14T03:22:54.922Z,18.50
2023-04-14T03:27:58.638Z,16.90
2023-04-14T03:30:31.687Z,16.70
2023-04-14T03:33:05.954Z,18.80
2023-04-14T03:35:38.160Z,15.80
2023-04-14T03:38:10.269Z,14.10
2023-04-14T03:40:42.527Z,13.60
2023-04-14T03:43:15.135Z,17.60
2023-04-14T03:45:45.770Z,16.00
2023-04-14T03:50:49.154Z,15.30
2023-04-14T03:53:21.656Z,17.40
2023-04-14T03:55:55.692Z,17.30
2023-04-14T03:58:28.502Z,15.80
2023-04-14T04:01:00.651Z,17.40
2023-04-14T04:03:33.330Z,19.70
2023-04-14T04:06:05.861Z,23.20
2023-04-14T04:08:38.044Z,22.50
2023-04-14T04:11:09.921Z,18.70
2023-04-14T04:13:41.559Z,14.10
2023-04-14T04:16:13.496Z,16.30
2023-04-14T04:18:48.219Z,15.50
2023-04-14T04:21:20.535Z,18.90
2023-04-14T04:23:54.146Z,17.40
2023-04-14T04:26:26.440Z,16.60
2023-04-14T04:28:58.407Z,14.80
2023-04-14T04:31:30.546Z,14.30
2023-04-14T04:34:02.476Z,13.40
2023-04-14T04:36:34.040Z,16.20
2023-04-14T04:39:04.790Z,16.80
2023-04-14T04:41:35.427Z,13.40
2023-04-14T04:44:06.251Z,13.50
2023-04-14T04:46:52.474Z,11.10
2023-04-14T04:49:23.325Z,12.70
2023-04-14T04:51:54.052Z,12.30
2023-04-14T04:54:24.814Z,16.00
2023-04-14T04:56:55.474Z,14.90
2023-04-14T04:59:26.199Z,14.40
2023-04-14T05:01:56.967Z,15.50
2023-04-14T05:04:28.161Z,12.60
2023-04-14T05:06:58.821Z,15.50
2023-04-14T05:09:29.506Z,16.80
2023-04-14T05:12:00.235Z,16.70
2023-04-14T05:14:31.004Z,12.50
2023-04-14T05:17:01.634Z,12.90
2023-04-14T05:19:32.481Z,11.50
2023-04-14T05:22:03.157Z,10.80
2023-04-14T05:24:33.867Z,10.50
2023-04-14T05:27:14.638Z,13.80
2023-04-14T05:29:46.788Z,27.10
2023-04-14T05:32:19.779Z,36.40
2023-04-14T05:34:50.509Z,21.10
2023-04-14T05:37:21.196Z,18.50
2023-04-14T05:39:52.184Z,14.70
2023-04-14T05:42:22.842Z,11.70
2023-04-14T05:44:53.514Z,13.60
2023-04-14T05:47:24.294Z,11.60
2023-04-14T05:49:55.198Z,10.30
2023-04-14T05:52:26.412Z,12.30
2023-04-14T05:54:57.164Z,11.40
2023-04-14T05:57:27.829Z,11.70
2023-04-14T05:59:58.534Z,15.40
2023-04-14T06:02:29.346Z,17.60
2023-04-14T06:05:00.293Z,12.30
2023-04-14T06:10:00.504Z,13.30
2023-04-14T06:12:31.244Z,13.00
2023-04-14T06:15:01.992Z,13.80
2023-04-14T06:17:32.819Z,16.10
2023-04-14T06:20:03.616Z,15.00
2023-04-14T06:22:34.262Z,16.30
2023-04-14T06:25:06.908Z,13.50
2023-04-14T06:27:37.538Z,14.60
2023-04-14T06:30:11.701Z,14.10
2023-04-14T06:32:42.463Z,13.40
2023-04-14T06:35:25.753Z,15.50
2023-04-14T06:38:02.826Z,15.10
2023-04-14T06:40:33.512Z,18.00
2023-04-14T06:43:04.109Z,15.40
2023-04-14T06:45:34.769Z,16.90
2023-04-14T06:48:07.793Z,16.50
2023-04-14T06:50:39.003Z,18.30
2023-04-14T06:53:09.637Z,26.20
2023-04-14T06:55:42.113Z,38.10
2023-04-14T06:58:12.745Z,36.30
2023-04-14T07:00:43.495Z,37.30
2023-04-14T07:03:14.166Z,27.30
2023-04-14T07:05:45.067Z,21.20
2023-04-14T07:08:15.864Z,23.70
2023-04-14T07:10:47.044Z,24.90
2023-04-14T07:13:17.812Z,20.80
2023-04-14T07:15:48.756Z,23.00
2023-04-14T07:20:48.859Z,24.70
2023-04-14T07:25:52.868Z,25.50
2023-04-14T07:28:24.567Z,24.60
2023-04-14T07:30:55.547Z,25.50
2023-04-14T07:33:28.835Z,26.10
2023-04-14T07:36:03.652Z,29.10
2023-04-14T07:38:35.102Z,26.00
2023-04-14T07:43:36.243Z,26.60
2023-04-14T07:46:08.802Z,27.20
2023-04-14T07:48:39.735Z,28.60
2023-04-14T07:51:10.450Z,26.00
2023-04-14T07:53:42.061Z,26.70
2023-04-14T07:56:13.562Z,26.10
2023-04-14T07:58:44.565Z,25.20
2023-04-14T08:03:45.556Z,33.50
2023-04-14T08:06:16.578Z,31.90
2023-04-14T08:08:47.245Z,32.70
2023-04-14T08:11:17.902Z,39.40
2023-04-14T08:13:48.556Z,39.10
2023-04-14T08:16:19.756Z,32.50
2023-04-14T08:18:50.908Z,28.20
2023-04-14T08:23:50.576Z,29.50
2023-04-14T08:26:21.256Z,28.20
2023-04-14T08:28:51.913Z,32.10
2023-04-14T08:31:24.618Z,27.70
2023-04-14T08:33:55.443Z,26.80
2023-04-14T08:36:26.431Z,29.10
2023-04-14T08:38:58.559Z,27.20
2023-04-14T08:41:38.322Z,27.40
2023-04-14T08:44:09.885Z,27.10
2023-04-14T08:46:42.271Z,32.70
2023-04-14T08:49:23.396Z,26.20
2023-04-14T08:54:25.623Z,31.50
2023-04-14T08:56:59.708Z,35.40
2023-04-14T08:59:30.871Z,30.80
2023-04-14T09:02:03.678Z,31.70
2023-04-14T09:04:35.852Z,33.80
2023-04-14T09:07:07.416Z,32.20
2023-04-14T09:09:38.313Z,32.60
2023-04-14T09:12:09.594Z,40.50
2023-04-14T09:14:40.228Z,35.00
2023-04-14T09:17:19.783Z,42.20
2023-04-14T09:20:34.887Z,41.30
2023-04-14T09:22:41.481Z,38.00
2023-04-14T09:25:15.335Z,36.50
2023-04-14T09:27:46.137Z,35.40
2023-04-14T09:30:17.759Z,35.30
2023-04-14T09:32:52.872Z,38.30
2023-04-14T09:35:24.336Z,35.80
2023-04-14T09:37:55.050Z,35.20
2023-04-14T09:40:33.281Z,34.80
2023-04-14T09:43:04.195Z,38.70
2023-04-14T09:45:44.401Z,34.50
2023-04-14T09:48:15.094Z,33.90
2023-04-14T09:51:05.172Z,35.00
2023-04-14T09:53:37.449Z,34.80
2023-04-14T09:56:11.351Z,34.30
2023-04-14T10:02:51.926Z,42.60
2023-04-14T10:05:26.187Z,37.30
2023-04-14T10:08:01.556Z,41.60
2023-04-14T10:10:32.539Z,37.30
2023-04-14T10:13:03.336Z,35.00
2023-04-14T10:15:34.464Z,33.40
2023-04-14T10:18:05.845Z,38.70
2023-04-14T10:20:38.410Z,35.40
2023-04-14T10:23:09.960Z,38.50
2023-04-14T10:25:42.634Z,36.70
2023-04-14T10:28:13.764Z,38.70
2023-04-14T10:33:17.048Z,43.40
2023-04-14T10:35:52.550Z,40.00
2023-04-14T10:38:36.772Z,35.50
2023-04-14T10:41:08.257Z,37.40
2023-04-14T10:43:39.355Z,35.40
2023-04-14T10:46:10.363Z,35.30
2023-04-14T10:51:11.585Z,36.10
2023-04-14T10:53:47.772Z,39.20
2023-04-14T10:56:21.736Z,35.30
2023-04-14T10:59:09.099Z,35.30
2023-04-14T11:01:43.516Z,33.50
2023-04-14T11:04:19.911Z,35.60
2023-04-14T11:07:20.861Z,35.60
2023-04-14T11:09:51.978Z,43.80
2023-04-14T11:12:26.765Z,35.30
2023-04-14T11:22:07.631Z,35.40
2023-04-14T11:27:37.689Z,37.80
2023-04-14T11:30:13.777Z,37.70
2023-04-14T11:32:52.630Z,37.10
2023-04-14T11:35:25.478Z,40.30
2023-04-14T11:38:00.625Z,40.20
2023-04-14T11:40:36.950Z,41.40
2023-04-14T11:43:07.878Z,38.40
2023-04-14T11:48:13.046Z,32.20
2023-04-14T11:50:43.860Z,32.70
2023-04-14T11:53:15.948Z,31.70
2023-04-14T11:55:48.328Z,32.70
2023-04-14T11:58:22.483Z,33.40
2023-04-14T12:00:56.015Z,31.70
2023-04-14T12:03:30.067Z,32.40
2023-04-14T12:06:02.377Z,29.30
2023-04-14T12:08:33.678Z,31.70
2023-04-14T12:11:14.944Z,35.50
2023-04-14T12:13:47.011Z,34.90
2023-04-14T12:16:18.465Z,28.00
2023-04-14T12:18:49.247Z,29.80
2023-04-14T12:21:20.670Z,27.70
2023-04-14T12:24:05.260Z,31.20
2023-04-14T12:26:48.863Z,29.80
2023-04-14T12:29:21.293Z,29.80
2023-04-14T12:31:55.771Z,31.10
2023-04-14T12:35:00.740Z,28.60
2023-04-14T12:37:50.643Z,27.80
2023-04-14T12:40:38.710Z,29.10
2023-04-14T12:43:09.845Z,31.90
2023-04-14T12:45:44.733Z,29.40
2023-04-14T12:48:16.319Z,30.60
2023-04-14T12:50:47.106Z,28.40
2023-04-14T12:55:48.372Z,29.80
2023-04-14T12:58:18.962Z,31.10
2023-04-14T13:00:49.768Z,38.90
2023-04-14T13:05:49.845Z,32.50
2023-04-14T13:08:20.433Z,35.60
2023-04-14T13:10:51.111Z,34.20
2023-04-14T13:13:21.808Z,37.20
2023-04-14T13:16:12.379Z,42.50
2023-04-14T13:18:43.129Z,37.90
2023-04-14T13:21:14.346Z,42.60
2023-04-14T13:23:45.073Z,35.70
2023-04-14T13:26:15.775Z,34.10
2023-04-14T13:31:17.878Z,33.60
2023-04-14T13:33:48.580Z,32.50
2023-04-14T13:36:19.266Z,32.60
2023-04-14T13:38:49.956Z,37.10
2023-04-14T13:41:20.621Z,36.80
2023-04-14T13:43:51.301Z,35.50
2023-04-14T13:46:22.032Z,34.60
2023-04-14T13:51:23.043Z,35.00
2023-04-14T13:53:53.621Z,36.80
2023-04-14T13:56:24.238Z,35.80
2023-04-14T13:58:55.254Z,34.90
2023-04-14T14:01:26.070Z,32.70
2023-04-14T14:06:26.182Z,33.20
2023-04-14T14:09:05.709Z,37.30
2023-04-14T14:11:37.274Z,36.70
2023-04-14T14:14:07.880Z,42.80
2023-04-14T14:16:38.564Z,41.90
2023-04-14T14:19:09.173Z,39.40
2023-04-14T14:21:39.950Z,34.10
2023-04-14T14:24:10.574Z,41.10
2023-04-14T14:26:41.321Z,33.50
2023-04-14T14:31:41.379Z,36.30
2023-04-14T14:34:12.140Z,35.40
2023-04-14T14:36:43.110Z,38.00
2023-04-14T14:39:13.787Z,40.70
2023-04-14T14:41:45.121Z,42.20
2023-04-14T14:46:44.907Z,42.60
2023-04-14T14:49:15.584Z,35.20
2023-04-14T14:51:46.393Z,33.70
2023-04-14T14:54:17.042Z,39.80
2023-04-14T14:56:47.685Z,35.70
2023-04-14T14:59:18.693Z,39.30
2023-04-14T15:01:49.432Z,39.70
2023-04-14T15:06:49.913Z,40.00
2023-04-14T15:11:49.650Z,36.50
2023-04-14T15:14:20.553Z,38.30
2023-04-14T15:16:51.371Z,35.50
2023-04-14T15:19:22.071Z,41.70
2023-04-14T15:21:52.814Z,36.20
2023-04-14T15:24:23.485Z,34.50
2023-04-14T15:26:54.115Z,34.30
2023-04-14T15:29:25.003Z,37.70
2023-04-14T15:34:24.955Z,34.50
2023-04-14T15:36:55.544Z,33.00
2023-04-14T15:39:26.208Z,34.50
2023-04-14T15:41:56.854Z,38.80
2023-04-14T15:44:27.496Z,33.60
2023-04-14T15:46:58.092Z,38.90
2023-04-14T15:49:28.740Z,35.10
2023-04-14T15:51:59.456Z,32.20
2023-04-14T15:54:31.079Z,33.50
2023-04-14T15:57:01.696Z,34.20
2023-04-14T15:59:32.590Z,35.00
2023-04-14T16:02:03.379Z,35.90
2023-04-14T16:07:03.440Z,41.90
2023-04-14T16:09:35.138Z,41.10
2023-04-14T16:12:05.819Z,43.60
2023-04-14T16:14:36.484Z,40.80
2023-04-14T16:17:07.104Z,39.40
2023-04-14T16:19:37.782Z,41.10
2023-04-14T16:22:08.418Z,43.60
2023-04-14T16:24:39.079Z,46.50
2023-04-14T16:27:09.697Z,48.00
2023-04-14T16:29:40.648Z,46.50
2023-04-14T16:32:11.276Z,46.70
2023-04-14T16:34:41.982Z,36.50
2023-04-14T16:37:12.668Z,35.80
2023-04-14T16:39:43.302Z,49.60
2023-04-14T16:42:13.885Z,43.20
2023-04-14T16:44:44.488Z,36.30
2023-04-14T16:47:15.151Z,32.40
2023-04-14T16:49:45.745Z,26.80
2023-04-14T16:52:16.341Z,25.30
2023-04-14T16:54:46.998Z,27.90
2023-04-14T16:57:17.589Z,23.90
2023-04-14T16:59:48.243Z,23.00
2023-04-14T17:02:18.977Z,27.10
2023-04-14T17:04:50.087Z,32.50
2023-04-14T17:09:49.865Z,22.80
2023-04-14T17:12:20.780Z,24.10
2023-04-14T17:17:20.608Z,33.40
2023-04-14T17:19:52.182Z,35.10
2023-04-14T17:22:22.798Z,30.20
2023-04-14T17:24:53.431Z,26.60
2023-04-14T17:27:24.072Z,28.60
2023-04-14T17:32:24.008Z,24.20
2023-04-14T17:34:54.769Z,21.30
2023-04-14T17:37:25.562Z,22.40
2023-04-14T17:39:56.369Z,20.70
2023-04-14T17:44:56.129Z,22.80
2023-04-14T17:47:26.922Z,17.60
2023-04-14T17:52:26.754Z,22.60
2023-04-14T17:54:57.618Z,24.50
2023-04-14T17:59:58.617Z,22.70
2023-04-14T18:02:29.414Z,23.50
2023-04-14T18:07:29.369Z,21.10
2023-04-14T18:10:00.111Z,21.40
2023-04-14T18:12:30.756Z,21.90
2023-04-14T18:15:01.502Z,25.90
2023-04-14T18:17:32.243Z,21.00
2023-04-14T18:20:03.189Z,22.00
2023-04-14T18:25:02.924Z,24.80
2023-04-14T18:30:10.370Z,19.50
2023-04-14T18:32:41.209Z,26.40
2023-04-14T18:35:13.646Z,25.20
2023-04-14T18:37:44.326Z,16.80
2023-04-14T18:40:15.217Z,18.10
2023-04-14T18:45:15.198Z,21.60
2023-04-14T18:47:46.294Z,24.50
2023-04-14T18:50:17.004Z,24.40
2023-04-14T18:55:18.588Z,22.90
2023-04-14T18:57:49.241Z,22.70
2023-04-14T19:02:49.362Z,23.40
2023-04-14T19:05:46.352Z,21.90
2023-04-14T19:08:17.749Z,20.90
2023-04-14T19:10:48.735Z,22.70
2023-04-14T19:15:48.859Z,21.80
2023-04-14T19:20:48.998Z,19.20
2023-04-14T19:23:19.899Z,23.40
2023-04-14T19:25:50.594Z,18.50
2023-04-14T19:28:21.215Z,17.60
2023-04-14T19:30:51.807Z,16.90
2023-04-14T19:33:22.625Z,24.30
2023-04-14T19:35:54.354Z,25.20
2023-04-14T19:38:24.965Z,24.00
2023-04-14T19:40:55.636Z,22.80
2023-04-14T19:43:26.356Z,21.20
2023-04-14T19:45:56.931Z,18.10
2023-04-14T19:48:27.722Z,17.30
2023-04-14T19:50:58.817Z,18.50
2023-04-14T19:53:29.798Z,20.80
2023-04-14T19:56:00.457Z,17.00
2023-04-14T19:58:31.625Z,16.40
2023-04-14T20:01:02.243Z,19.70
2023-04-14T20:03:34.457Z,16.30
2023-04-14T20:06:05.612Z,16.50
2023-04-14T20:08:36.230Z,16.90
2023-04-14T20:11:06.900Z,16.70
2023-04-14T20:13:37.653Z,15.80
2023-04-14T20:16:09.410Z,20.20
2023-04-14T20:18:40.144Z,15.70
2023-04-14T20:21:10.797Z,22.30
2023-04-14T20:23:41.525Z,20.00
2023-04-14T20:26:13.084Z,16.80
2023-04-14T20:28:43.785Z,19.10
2023-04-14T20:31:15.316Z,21.30
2023-04-14T20:33:46.022Z,20.50
2023-04-14T20:36:16.723Z,17.00
2023-04-14T20:38:47.329Z,17.50
2023-04-14T20:41:17.997Z,17.20
2023-04-14T20:43:48.604Z,17.50
2023-04-14T20:46:19.301Z,14.30
2023-04-14T20:48:49.956Z,16.10
2023-04-14T20:51:20.730Z,15.80
2023-04-14T20:53:51.317Z,11.80
2023-04-14T20:56:21.947Z,14.50
2023-04-14T20:58:52.659Z,11.40
2023-04-14T21:01:23.331Z,10.70
2023-04-14T21:03:54.134Z,12.30
2023-04-14T21:06:25.024Z,11.00
2023-04-14T21:08:55.661Z,10.80
2023-04-14T21:11:26.308Z,14.60
2023-04-14T21:15:40.215Z,13.20
2023-04-14T21:16:47.707Z,10.50
2023-04-14T21:19:18.455Z,13.70
2023-04-14T21:21:49.068Z,11.60
2023-04-14T21:24:19.814Z,12.40
2023-04-14T21:26:50.365Z,10.00
2023-04-14T21:29:20.973Z,9.80
2023-04-14T21:31:51.636Z,11.10
2023-04-14T21:34:22.296Z,13.00
2023-04-14T21:36:53.028Z,13.50
2023-04-14T21:39:23.686Z,12.60
2023-04-14T21:41:54.326Z,10.90
2023-04-14T21:44:25.018Z,12.20
2023-04-14T21:46:55.989Z,14.20
2023-04-14T21:51:55.686Z,12.40
2023-04-14T21:54:26.378Z,13.50
2023-04-14T21:56:57.086Z,15.70
2023-04-14T21:59:27.864Z,15.20
2023-04-14T22:01:59.304Z,16.40
2023-04-14T22:04:36.450Z,11.40
2023-04-14T22:07:08.220Z,11.10
2023-04-14T22:12:08.020Z,12.60
2023-04-14T22:14:38.692Z,12.20
2023-04-14T22:17:09.598Z,12.20
2023-04-14T22:22:09.471Z,13.30
2023-04-14T22:24:40.090Z,14.80
2023-04-14T22:27:10.719Z,13.20
2023-04-14T22:29:41.436Z,16.80
2023-04-14T22:32:12.057Z,14.00
2023-04-14T22:34:42.707Z,14.80
2023-04-14T22:37:13.357Z,14.00
2023-04-14T22:39:44.224Z,12.70
2023-04-14T22:42:14.821Z,14.00
2023-04-14T22:44:45.472Z,15.40
2023-04-14T22:47:16.114Z,14.70
2023-04-14T22:49:46.755Z,15.90
2023-04-14T22:52:17.352Z,15.20
2023-04-14T22:54:47.988Z,10.90
2023-04-14T22:57:18.652Z,14.80
2023-04-14T22:59:49.255Z,12.40
2023-04-14T23:02:19.993Z,10.50
2023-04-14T23:07:20.083Z,12.70
2023-04-14T23:09:50.808Z,12.40
2023-04-14T23:12:21.391Z,15.80
2023-04-14T23:14:52.038Z,15.10
2023-04-14T23:17:22.742Z,13.90
2023-04-14T23:19:53.580Z,14.00
2023-04-14T23:22:24.180Z,12.10
2023-04-14T23:24:54.787Z,10.80
2023-04-14T23:27:25.449Z,13.90
2023-04-14T23:29:56.090Z,12.70
2023-04-14T23:32:26.750Z,11.30
2023-04-14T23:34:57.401Z,14.10
2023-04-14T23:37:28.128Z,11.00
2023-04-14T23:42:28.195Z,9.60
2023-04-14T23:44:58.764Z,13.40
2023-04-14T23:47:29.418Z,11.40
2023-04-14T23:50:00.053Z,13.10
2023-04-14T23:52:30.836Z,10.50
2023-04-14T23:55:01.496Z,9.40
2023-04-14T23:57:32.169Z,12.10
